sensor_id;sensor_type;location;lat;lon;timestamp;temperature;humidity
20827;DHT22;10574;52.508;13.236;2023-09-30T00:00:04;16.90;99.90
20827;DHT22;10574;52.508;13.236;2023-09-30T00:02:33;16.90;99.90
20827;DHT22;10574;52.508;13.236;2023-09-30T00:05:01;16.80;99.90
20827;DHT22;10574;52.508;13.236;2023-09-30T00:07:30;16.80;99.90
20827;DHT22;10574;52.508;13.236;2023-09-30T00:09:58;16.80;99.90
20827;DHT22;10574;52.508;13.236;2023-09-30T00:12:27;16.70;99.90
20827;DHT22;10574;52.508;13.236;2023-09-30T00:14:55;16.60;99.90
20827;DHT22;10574;52.508;13.236;2023-09-30T00:17:22;16.50;99.90
20827;DHT22;10574;52.508;13.236;2023-09-30T00:19:50;16.50;99.90
20827;DHT22;10574;52.508;13.236;2023-09-30T00:22:18;16.30;99.90
20827;DHT22;10574;52.508;13.236;2023-09-30T00:24:46;16.30;99.90
20827;DHT22;10574;52.508;13.236;2023-09-30T00:27:13;16.20;99.90
20827;DHT22;10574;52.508;13.236;2023-09-30T00:29:41;16.10;99.90
20827;DHT22;10574;52.508;13.236;2023-09-30T00:32:09;16.10;99.90
20827;DHT22;10574;52.508;13.236;2023-09-30T00:34:37;16.00;99.90
20827;DHT22;10574;52.508;13.236;2023-09-30T00:37:05;15.90;99.90
20827;DHT22;10574;52.508;13.236;2023-09-30T00:39:33;15.90;99.90
20827;DHT22;10574;52.508;13.236;2023-09-30T00:42:00;15.80;99.90
20827;DHT22;10574;52.508;13.236;2023-09-30T00:44:30;15.70;99.90
20827;DHT22;10574;52.508;13.236;2023-09-30T00:46:57;15.70;99.90
20827;DHT22;10574;52.508;13.236;2023-09-30T00:49:26;15.60;99.90
20827;DHT22;10574;52.508;13.236;2023-09-30T00:51:55;15.60;99.90
20827;DHT22;10574;52.508;13.236;2023-09-30T00:54:24;15.50;99.90
20827;DHT22;10574;52.508;13.236;2023-09-30T00:56:55;15.50;99.90
20827;DHT22;10574;52.508;13.236;2023-09-30T00:59:24;15.50;99.90
20827;DHT22;10574;52.508;13.236;2023-09-30T01:01:54;15.40;99.90
20827;DHT22;10574;52.508;13.236;2023-09-30T01:04:24;15.40;99.90
20827;DHT22;10574;52.508;13.236;2023-09-30T01:06:53;15.40;99.90
20827;DHT22;10574;52.508;13.236;2023-09-30T01:09:23;15.30;99.90
20827;DHT22;10574;52.508;13.236;2023-09-30T01:11:52;15.20;99.90
20827;DHT22;10574;52.508;13.236;2023-09-30T01:14:33;15.10;99.90
20827;DHT22;10574;52.508;13.236;2023-09-30T01:16:57;15.10;99.90
20827;DHT22;10574;52.508;13.236;2023-09-30T01:19:28;15.10;99.90
20827;DHT22;10574;52.508;13.236;2023-09-30T01:21:56;15.00;99.90
20827;DHT22;10574;52.508;13.236;2023-09-30T01:24:26;15.00;99.90
20827;DHT22;10574;52.508;13.236;2023-09-30T01:26:54;15.00;99.90
20827;DHT22;10574;52.508;13.236;2023-09-30T01:29:22;14.90;99.90
20827;DHT22;10574;52.508;13.236;2023-09-30T01:31:52;14.90;99.90
20827;DHT22;10574;52.508;13.236;2023-09-30T01:34:20;14.90;99.90
20827;DHT22;10574;52.508;13.236;2023-09-30T01:36:49;14.90;99.90
20827;DHT22;10574;52.508;13.236;2023-09-30T01:39:17;14.90;99.90
20827;DHT22;10574;52.508;13.236;2023-09-30T01:41:45;14.80;99.90
20827;DHT22;10574;52.508;13.236;2023-09-30T01:44:13;14.80;99.90
20827;DHT22;10574;52.508;13.236;2023-09-30T01:46:40;14.80;99.90
20827;DHT22;10574;52.508;13.236;2023-09-30T01:49:09;14.70;99.90
20827;DHT22;10574;52.508;13.236;2023-09-30T01:51:38;14.70;99.90
20827;DHT22;10574;52.508;13.236;2023-09-30T01:54:06;14.70;99.90
20827;DHT22;10574;52.508;13.236;2023-09-30T01:56:33;14.60;99.90
20827;DHT22;10574;52.508;13.236;2023-09-30T01:59:01;14.60;99.90
20827;DHT22;10574;52.508;13.236;2023-09-30T02:01:29;14.60;99.90
20827;DHT22;10574;52.508;13.236;2023-09-30T02:03:57;14.50;99.90
20827;DHT22;10574;52.508;13.236;2023-09-30T02:06:25;14.50;99.90
20827;DHT22;10574;52.508;13.236;2023-09-30T02:08:53;14.40;99.90
20827;DHT22;10574;52.508;13.236;2023-09-30T02:11:21;14.40;99.90
20827;DHT22;10574;52.508;13.236;2023-09-30T02:13:49;14.40;99.90
20827;DHT22;10574;52.508;13.236;2023-09-30T02:16:16;14.40;99.90
20827;DHT22;10574;52.508;13.236;2023-09-30T02:18:44;14.30;99.90
20827;DHT22;10574;52.508;13.236;2023-09-30T02:21:12;14.30;99.90
20827;DHT22;10574;52.508;13.236;2023-09-30T02:23:40;14.30;99.90
20827;DHT22;10574;52.508;13.236;2023-09-30T02:26:07;14.30;99.90
20827;DHT22;10574;52.508;13.236;2023-09-30T02:28:35;14.20;99.90
20827;DHT22;10574;52.508;13.236;2023-09-30T02:31:03;14.20;99.90
20827;DHT22;10574;52.508;13.236;2023-09-30T02:33:30;14.10;99.90
20827;DHT22;10574;52.508;13.236;2023-09-30T02:35:58;14.10;99.90
20827;DHT22;10574;52.508;13.236;2023-09-30T02:38:26;14.10;99.90
20827;DHT22;10574;52.508;13.236;2023-09-30T02:40:57;14.00;99.90
20827;DHT22;10574;52.508;13.236;2023-09-30T02:43:25;14.00;99.90
20827;DHT22;10574;52.508;13.236;2023-09-30T02:45:52;14.00;99.90
20827;DHT22;10574;52.508;13.236;2023-09-30T02:48:20;13.90;99.90
20827;DHT22;10574;52.508;13.236;2023-09-30T02:50:48;13.90;99.90
20827;DHT22;10574;52.508;13.236;2023-09-30T02:53:17;13.90;99.90
20827;DHT22;10574;52.508;13.236;2023-09-30T02:55:45;13.80;99.90
20827;DHT22;10574;52.508;13.236;2023-09-30T02:58:13;13.80;99.90
20827;DHT22;10574;52.508;13.236;2023-09-30T03:00:41;13.80;99.90
20827;DHT22;10574;52.508;13.236;2023-09-30T03:03:10;13.80;99.90
20827;DHT22;10574;52.508;13.236;2023-09-30T03:05:38;13.80;99.90
20827;DHT22;10574;52.508;13.236;2023-09-30T03:08:06;13.80;99.90
20827;DHT22;10574;52.508;13.236;2023-09-30T03:10:34;13.70;99.90
20827;DHT22;10574;52.508;13.236;2023-09-30T03:13:04;13.80;99.90
20827;DHT22;10574;52.508;13.236;2023-09-30T03:15:33;13.70;99.90
20827;DHT22;10574;52.508;13.236;2023-09-30T03:18:01;13.70;99.90
20827;DHT22;10574;52.508;13.236;2023-09-30T03:20:30;13.70;99.90
20827;DHT22;10574;52.508;13.236;2023-09-30T03:22:58;13.70;99.90
20827;DHT22;10574;52.508;13.236;2023-09-30T03:25:26;13.70;99.90
20827;DHT22;10574;52.508;13.236;2023-09-30T03:27:53;13.70;99.90
20827;DHT22;10574;52.508;13.236;2023-09-30T03:30:23;13.70;99.90
20827;DHT22;10574;52.508;13.236;2023-09-30T03:32:51;13.70;99.90
20827;DHT22;10574;52.508;13.236;2023-09-30T03:35:19;13.60;99.90
20827;DHT22;10574;52.508;13.236;2023-09-30T03:37:49;13.60;99.90
20827;DHT22;10574;52.508;13.236;2023-09-30T03:40:17;13.50;99.90
20827;DHT22;10574;52.508;13.236;2023-09-30T03:42:49;13.50;99.90
20827;DHT22;10574;52.508;13.236;2023-09-30T03:45:17;13.50;99.90
20827;DHT22;10574;52.508;13.236;2023-09-30T03:47:45;13.40;99.90
20827;DHT22;10574;52.508;13.236;2023-09-30T03:50:14;13.40;99.90
20827;DHT22;10574;52.508;13.236;2023-09-30T03:52:43;13.40;99.90
20827;DHT22;10574;52.508;13.236;2023-09-30T03:55:11;13.30;99.90
20827;DHT22;10574;52.508;13.236;2023-09-30T03:57:41;13.30;99.90
20827;DHT22;10574;52.508;13.236;2023-09-30T04:00:09;13.30;99.90
20827;DHT22;10574;52.508;13.236;2023-09-30T04:02:38;13.30;99.90
20827;DHT22;10574;52.508;13.236;2023-09-30T04:05:08;13.20;99.90
20827;DHT22;10574;52.508;13.236;2023-09-30T04:07:40;13.20;99.90
20827;DHT22;10574;52.508;13.236;2023-09-30T04:10:10;13.20;99.90
20827;DHT22;10574;52.508;13.236;2023-09-30T04:12:37;13.20;99.90
20827;DHT22;10574;52.508;13.236;2023-09-30T04:15:06;13.10;99.90
20827;DHT22;10574;52.508;13.236;2023-09-30T04:17:34;13.10;99.90
20827;DHT22;10574;52.508;13.236;2023-09-30T04:20:03;13.10;99.90
20827;DHT22;10574;52.508;13.236;2023-09-30T04:22:33;13.10;99.90
20827;DHT22;10574;52.508;13.236;2023-09-30T04:25:02;13.10;99.90
20827;DHT22;10574;52.508;13.236;2023-09-30T04:27:31;13.10;99.90
20827;DHT22;10574;52.508;13.236;2023-09-30T04:29:59;13.00;99.90
20827;DHT22;10574;52.508;13.236;2023-09-30T04:32:27;13.00;99.90
20827;DHT22;10574;52.508;13.236;2023-09-30T04:34:56;13.00;99.90
20827;DHT22;10574;52.508;13.236;2023-09-30T04:37:23;12.90;99.90
20827;DHT22;10574;52.508;13.236;2023-09-30T04:39:51;12.90;99.90
20827;DHT22;10574;52.508;13.236;2023-09-30T04:42:20;12.90;99.90
20827;DHT22;10574;52.508;13.236;2023-09-30T04:44:56;12.90;99.90
20827;DHT22;10574;52.508;13.236;2023-09-30T04:47:21;12.80;99.90
20827;DHT22;10574;52.508;13.236;2023-09-30T04:49:50;12.90;99.90
20827;DHT22;10574;52.508;13.236;2023-09-30T04:52:18;12.90;99.90
20827;DHT22;10574;52.508;13.236;2023-09-30T04:54:47;12.80;99.90
20827;DHT22;10574;52.508;13.236;2023-09-30T04:57:16;12.80;99.90
20827;DHT22;10574;52.508;13.236;2023-09-30T04:59:43;12.80;99.90
20827;DHT22;10574;52.508;13.236;2023-09-30T05:02:13;12.80;99.90
20827;DHT22;10574;52.508;13.236;2023-09-30T05:04:42;12.80;99.90
20827;DHT22;10574;52.508;13.236;2023-09-30T05:07:09;12.80;99.90
20827;DHT22;10574;52.508;13.236;2023-09-30T05:09:39;12.80;99.90
20827;DHT22;10574;52.508;13.236;2023-09-30T05:12:08;12.80;99.90
20827;DHT22;10574;52.508;13.236;2023-09-30T05:14:36;12.80;99.90
20827;DHT22;10574;52.508;13.236;2023-09-30T05:17:05;12.80;99.90
20827;DHT22;10574;52.508;13.236;2023-09-30T05:19:34;12.80;99.90
20827;DHT22;10574;52.508;13.236;2023-09-30T05:22:04;12.80;99.90
20827;DHT22;10574;52.508;13.236;2023-09-30T05:24:31;12.80;99.90
20827;DHT22;10574;52.508;13.236;2023-09-30T05:26:59;12.80;99.90
20827;DHT22;10574;52.508;13.236;2023-09-30T05:29:27;12.80;99.90
20827;DHT22;10574;52.508;13.236;2023-09-30T05:31:55;12.80;99.90
20827;DHT22;10574;52.508;13.236;2023-09-30T05:34:22;12.80;99.90
20827;DHT22;10574;52.508;13.236;2023-09-30T05:36:51;12.80;99.90
20827;DHT22;10574;52.508;13.236;2023-09-30T05:39:18;12.90;99.90
20827;DHT22;10574;52.508;13.236;2023-09-30T05:41:47;12.90;99.90
20827;DHT22;10574;52.508;13.236;2023-09-30T05:44:15;12.90;99.90
20827;DHT22;10574;52.508;13.236;2023-09-30T05:46:42;12.90;99.90
20827;DHT22;10574;52.508;13.236;2023-09-30T05:49:12;13.00;99.90
20827;DHT22;10574;52.508;13.236;2023-09-30T05:51:41;13.00;99.90
20827;DHT22;10574;52.508;13.236;2023-09-30T05:54:09;13.10;99.90
20827;DHT22;10574;52.508;13.236;2023-09-30T05:56:37;13.20;99.90
20827;DHT22;10574;52.508;13.236;2023-09-30T05:59:05;13.20;99.90
20827;DHT22;10574;52.508;13.236;2023-09-30T06:01:33;13.30;99.90
20827;DHT22;10574;52.508;13.236;2023-09-30T06:04:03;13.40;99.90
20827;DHT22;10574;52.508;13.236;2023-09-30T06:06:31;13.50;99.90
20827;DHT22;10574;52.508;13.236;2023-09-30T06:08:59;13.60;99.90
20827;DHT22;10574;52.508;13.236;2023-09-30T06:11:27;13.60;99.90
20827;DHT22;10574;52.508;13.236;2023-09-30T06:13:57;13.70;99.90
20827;DHT22;10574;52.508;13.236;2023-09-30T06:16:27;13.70;99.90
20827;DHT22;10574;52.508;13.236;2023-09-30T06:18:56;13.70;99.90
20827;DHT22;10574;52.508;13.236;2023-09-30T06:21:24;13.80;99.90
20827;DHT22;10574;52.508;13.236;2023-09-30T06:23:54;13.80;99.90
20827;DHT22;10574;52.508;13.236;2023-09-30T06:26:23;13.80;99.90
20827;DHT22;10574;52.508;13.236;2023-09-30T06:28:56;13.70;99.90
20827;DHT22;10574;52.508;13.236;2023-09-30T06:31:24;13.70;99.90
20827;DHT22;10574;52.508;13.236;2023-09-30T06:33:51;13.70;99.90
20827;DHT22;10574;52.508;13.236;2023-09-30T06:36:19;13.60;99.90
20827;DHT22;10574;52.508;13.236;2023-09-30T06:38:47;13.60;99.90
20827;DHT22;10574;52.508;13.236;2023-09-30T06:41:17;13.60;99.90
20827;DHT22;10574;52.508;13.236;2023-09-30T06:43:45;13.60;99.90
20827;DHT22;10574;52.508;13.236;2023-09-30T06:46:15;13.60;99.90
20827;DHT22;10574;52.508;13.236;2023-09-30T06:48:43;13.60;99.90
20827;DHT22;10574;52.508;13.236;2023-09-30T06:51:15;13.70;99.90
20827;DHT22;10574;52.508;13.236;2023-09-30T06:53:43;13.80;99.90
20827;DHT22;10574;52.508;13.236;2023-09-30T06:56:12;13.80;99.90
20827;DHT22;10574;52.508;13.236;2023-09-30T06:58:44;13.90;99.90
20827;DHT22;10574;52.508;13.236;2023-09-30T07:01:14;14.00;99.90
20827;DHT22;10574;52.508;13.236;2023-09-30T07:03:42;14.00;99.90
20827;DHT22;10574;52.508;13.236;2023-09-30T07:06:10;14.10;99.90
20827;DHT22;10574;52.508;13.236;2023-09-30T07:08:38;14.20;99.90
20827;DHT22;10574;52.508;13.236;2023-09-30T07:11:06;14.20;99.90
20827;DHT22;10574;52.508;13.236;2023-09-30T07:13:34;14.30;99.90
20827;DHT22;10574;52.508;13.236;2023-09-30T07:16:03;14.40;99.90
20827;DHT22;10574;52.508;13.236;2023-09-30T07:18:33;14.50;99.90
20827;DHT22;10574;52.508;13.236;2023-09-30T07:21:01;14.50;99.90
20827;DHT22;10574;52.508;13.236;2023-09-30T07:23:30;14.60;99.90
20827;DHT22;10574;52.508;13.236;2023-09-30T07:25:59;14.70;99.90
20827;DHT22;10574;52.508;13.236;2023-09-30T07:28:33;14.70;99.90
20827;DHT22;10574;52.508;13.236;2023-09-30T07:30:58;14.60;99.90
20827;DHT22;10574;52.508;13.236;2023-09-30T07:33:27;14.70;99.90
20827;DHT22;10574;52.508;13.236;2023-09-30T07:35:59;14.70;99.90
20827;DHT22;10574;52.508;13.236;2023-09-30T07:38:32;14.70;99.90
20827;DHT22;10574;52.508;13.236;2023-09-30T07:41:05;14.80;99.90
20827;DHT22;10574;52.508;13.236;2023-09-30T07:43:37;14.80;99.90
20827;DHT22;10574;52.508;13.236;2023-09-30T07:46:09;14.70;99.90
20827;DHT22;10574;52.508;13.236;2023-09-30T07:48:37;14.70;99.90
20827;DHT22;10574;52.508;13.236;2023-09-30T07:51:06;14.70;99.90
20827;DHT22;10574;52.508;13.236;2023-09-30T07:53:36;14.60;99.90
20827;DHT22;10574;52.508;13.236;2023-09-30T07:56:05;14.70;99.90
20827;DHT22;10574;52.508;13.236;2023-09-30T07:58:33;14.70;99.90
20827;DHT22;10574;52.508;13.236;2023-09-30T08:01:02;14.70;99.90
20827;DHT22;10574;52.508;13.236;2023-09-30T08:03:30;14.70;99.90
20827;DHT22;10574;52.508;13.236;2023-09-30T08:05:59;14.70;99.90
20827;DHT22;10574;52.508;13.236;2023-09-30T08:08:27;14.70;99.90
20827;DHT22;10574;52.508;13.236;2023-09-30T08:10:57;14.80;99.90
20827;DHT22;10574;52.508;13.236;2023-09-30T08:13:26;14.80;99.90
20827;DHT22;10574;52.508;13.236;2023-09-30T08:15:56;15.00;99.90
20827;DHT22;10574;52.508;13.236;2023-09-30T08:18:25;15.30;99.90
20827;DHT22;10574;52.508;13.236;2023-09-30T08:20:53;15.40;99.90
20827;DHT22;10574;52.508;13.236;2023-09-30T08:23:20;15.60;99.90
20827;DHT22;10574;52.508;13.236;2023-09-30T08:25:49;15.90;99.90
20827;DHT22;10574;52.508;13.236;2023-09-30T08:28:17;16.20;99.90
20827;DHT22;10574;52.508;13.236;2023-09-30T08:30:45;16.40;99.90
20827;DHT22;10574;52.508;13.236;2023-09-30T08:33:13;16.50;99.90
20827;DHT22;10574;52.508;13.236;2023-09-30T08:35:42;16.60;99.90
20827;DHT22;10574;52.508;13.236;2023-09-30T08:38:09;16.70;99.90
20827;DHT22;10574;52.508;13.236;2023-09-30T08:40:38;16.60;99.90
20827;DHT22;10574;52.508;13.236;2023-09-30T08:43:09;16.60;99.90
20827;DHT22;10574;52.508;13.236;2023-09-30T08:45:39;16.50;99.90
20827;DHT22;10574;52.508;13.236;2023-09-30T08:48:07;16.30;99.90
20827;DHT22;10574;52.508;13.236;2023-09-30T08:50:37;16.20;99.90
20827;DHT22;10574;52.508;13.236;2023-09-30T08:53:07;16.30;99.90
20827;DHT22;10574;52.508;13.236;2023-09-30T08:55:37;16.20;99.90
20827;DHT22;10574;52.508;13.236;2023-09-30T08:58:05;16.40;99.90
20827;DHT22;10574;52.508;13.236;2023-09-30T09:00:33;16.60;99.90
20827;DHT22;10574;52.508;13.236;2023-09-30T09:03:02;16.70;99.90
20827;DHT22;10574;52.508;13.236;2023-09-30T09:05:30;16.80;99.90
20827;DHT22;10574;52.508;13.236;2023-09-30T09:07:58;16.80;99.90
20827;DHT22;10574;52.508;13.236;2023-09-30T09:10:25;17.00;99.90
20827;DHT22;10574;52.508;13.236;2023-09-30T09:12:57;17.10;99.90
20827;DHT22;10574;52.508;13.236;2023-09-30T09:15:30;17.20;99.90
20827;DHT22;10574;52.508;13.236;2023-09-30T09:17:58;17.30;99.90
20827;DHT22;10574;52.508;13.236;2023-09-30T09:20:26;17.30;99.90
20827;DHT22;10574;52.508;13.236;2023-09-30T09:22:56;17.30;99.90
20827;DHT22;10574;52.508;13.236;2023-09-30T09:25:25;17.30;99.90
20827;DHT22;10574;52.508;13.236;2023-09-30T09:27:54;17.30;99.90
20827;DHT22;10574;52.508;13.236;2023-09-30T09:30:26;17.30;99.90
20827;DHT22;10574;52.508;13.236;2023-09-30T09:33:02;17.40;99.90
20827;DHT22;10574;52.508;13.236;2023-09-30T09:35:32;17.50;99.90
20827;DHT22;10574;52.508;13.236;2023-09-30T09:38:05;17.50;99.90
20827;DHT22;10574;52.508;13.236;2023-09-30T09:40:34;17.70;99.90
20827;DHT22;10574;52.508;13.236;2023-09-30T09:43:03;17.80;99.90
20827;DHT22;10574;52.508;13.236;2023-09-30T09:45:34;17.80;99.90
20827;DHT22;10574;52.508;13.236;2023-09-30T09:48:03;17.90;99.90
20827;DHT22;10574;52.508;13.236;2023-09-30T09:50:32;17.80;99.90
20827;DHT22;10574;52.508;13.236;2023-09-30T09:53:00;17.90;99.90
20827;DHT22;10574;52.508;13.236;2023-09-30T09:55:27;18.00;99.90
20827;DHT22;10574;52.508;13.236;2023-09-30T09:57:56;18.10;99.90
20827;DHT22;10574;52.508;13.236;2023-09-30T10:00:26;18.30;99.90
20827;DHT22;10574;52.508;13.236;2023-09-30T10:02:56;18.40;99.90
20827;DHT22;10574;52.508;13.236;2023-09-30T10:05:23;18.40;99.90
20827;DHT22;10574;52.508;13.236;2023-09-30T10:07:57;18.50;99.90
20827;DHT22;10574;52.508;13.236;2023-09-30T10:10:25;18.50;99.90
20827;DHT22;10574;52.508;13.236;2023-09-30T10:12:54;18.60;99.90
20827;DHT22;10574;52.508;13.236;2023-09-30T10:18:01;18.70;99.90
20827;DHT22;10574;52.508;13.236;2023-09-30T10:20:31;18.90;99.90
20827;DHT22;10574;52.508;13.236;2023-09-30T10:23:20;19.10;99.90
20827;DHT22;10574;52.508;13.236;2023-09-30T10:25:53;19.30;99.90
20827;DHT22;10574;52.508;13.236;2023-09-30T10:28:38;19.40;99.90
20827;DHT22;10574;52.508;13.236;2023-09-30T10:31:17;19.20;99.90
20827;DHT22;10574;52.508;13.236;2023-09-30T10:36:34;19.00;99.90
20827;DHT22;10574;52.508;13.236;2023-09-30T10:39:17;18.80;99.90
20827;DHT22;10574;52.508;13.236;2023-09-30T10:44:32;18.60;99.90
20827;DHT22;10574;52.508;13.236;2023-09-30T10:47:43;18.40;99.90
20827;DHT22;10574;52.508;13.236;2023-09-30T10:49:33;18.50;99.90
20827;DHT22;10574;52.508;13.236;2023-09-30T10:52:02;18.80;99.90
20827;DHT22;10574;52.508;13.236;2023-09-30T10:54:31;19.20;99.90
20827;DHT22;10574;52.508;13.236;2023-09-30T10:57:00;19.30;99.90
20827;DHT22;10574;52.508;13.236;2023-09-30T10:59:30;19.50;99.90
20827;DHT22;10574;52.508;13.236;2023-09-30T11:01:59;19.30;99.90
20827;DHT22;10574;52.508;13.236;2023-09-30T11:04:27;19.00;99.90
20827;DHT22;10574;52.508;13.236;2023-09-30T11:06:54;18.80;99.90
20827;DHT22;10574;52.508;13.236;2023-09-30T11:09:23;18.80;99.90
20827;DHT22;10574;52.508;13.236;2023-09-30T11:11:52;18.70;99.90
20827;DHT22;10574;52.508;13.236;2023-09-30T11:14:31;18.70;99.90
20827;DHT22;10574;52.508;13.236;2023-09-30T11:17:00;19.10;99.90
20827;DHT22;10574;52.508;13.236;2023-09-30T11:19:48;19.40;99.90
20827;DHT22;10574;52.508;13.236;2023-09-30T11:22:16;19.40;99.90
20827;DHT22;10574;52.508;13.236;2023-09-30T11:24:44;19.30;99.90
20827;DHT22;10574;52.508;13.236;2023-09-30T11:27:12;19.10;99.90
20827;DHT22;10574;52.508;13.236;2023-09-30T11:29:48;19.00;99.90
20827;DHT22;10574;52.508;13.236;2023-09-30T11:32:26;19.10;99.90
20827;DHT22;10574;52.508;13.236;2023-09-30T11:34:54;19.10;99.90
20827;DHT22;10574;52.508;13.236;2023-09-30T11:37:21;19.10;99.90
20827;DHT22;10574;52.508;13.236;2023-09-30T11:39:49;19.10;99.90
20827;DHT22;10574;52.508;13.236;2023-09-30T11:42:18;19.10;99.90
20827;DHT22;10574;52.508;13.236;2023-09-30T11:44:47;19.30;99.90
20827;DHT22;10574;52.508;13.236;2023-09-30T11:47:15;19.40;99.90
20827;DHT22;10574;52.508;13.236;2023-09-30T11:49:43;19.40;99.90
20827;DHT22;10574;52.508;13.236;2023-09-30T11:52:12;19.40;99.90
20827;DHT22;10574;52.508;13.236;2023-09-30T11:54:43;19.30;99.90
20827;DHT22;10574;52.508;13.236;2023-09-30T11:57:13;19.30;99.90
20827;DHT22;10574;52.508;13.236;2023-09-30T11:59:46;19.40;99.90
20827;DHT22;10574;52.508;13.236;2023-09-30T12:02:16;19.30;99.90
20827;DHT22;10574;52.508;13.236;2023-09-30T12:04:45;19.20;99.90
20827;DHT22;10574;52.508;13.236;2023-09-30T12:07:16;19.20;99.90
20827;DHT22;10574;52.508;13.236;2023-09-30T12:09:44;19.30;99.90
20827;DHT22;10574;52.508;13.236;2023-09-30T12:12:12;19.40;99.90
20827;DHT22;10574;52.508;13.236;2023-09-30T12:14:41;19.40;99.90
20827;DHT22;10574;52.508;13.236;2023-09-30T12:17:08;19.60;99.90
20827;DHT22;10574;52.508;13.236;2023-09-30T12:19:37;19.70;99.90
20827;DHT22;10574;52.508;13.236;2023-09-30T12:22:05;19.90;99.90
20827;DHT22;10574;52.508;13.236;2023-09-30T12:24:32;20.10;99.90
20827;DHT22;10574;52.508;13.236;2023-09-30T12:27:00;20.30;99.90
20827;DHT22;10574;52.508;13.236;2023-09-30T12:29:29;20.40;99.90
20827;DHT22;10574;52.508;13.236;2023-09-30T12:31:57;20.50;99.90
20827;DHT22;10574;52.508;13.236;2023-09-30T12:34:25;20.30;99.90
20827;DHT22;10574;52.508;13.236;2023-09-30T12:36:58;20.30;99.90
20827;DHT22;10574;52.508;13.236;2023-09-30T12:39:26;20.40;99.90
20827;DHT22;10574;52.508;13.236;2023-09-30T12:41:56;20.50;99.90
20827;DHT22;10574;52.508;13.236;2023-09-30T12:44:24;20.60;99.90
20827;DHT22;10574;52.508;13.236;2023-09-30T12:46:52;20.70;99.90
20827;DHT22;10574;52.508;13.236;2023-09-30T12:49:24;20.70;99.90
20827;DHT22;10574;52.508;13.236;2023-09-30T12:51:52;20.50;99.90
20827;DHT22;10574;52.508;13.236;2023-09-30T12:54:20;20.60;99.90
20827;DHT22;10574;52.508;13.236;2023-09-30T12:56:49;20.70;99.90
20827;DHT22;10574;52.508;13.236;2023-09-30T12:59:17;20.80;99.90
20827;DHT22;10574;52.508;13.236;2023-09-30T13:01:47;20.60;99.90
20827;DHT22;10574;52.508;13.236;2023-09-30T13:04:15;20.40;99.90
20827;DHT22;10574;52.508;13.236;2023-09-30T13:06:45;20.30;99.90
20827;DHT22;10574;52.508;13.236;2023-09-30T13:09:32;20.20;99.90
20827;DHT22;10574;52.508;13.236;2023-09-30T13:12:00;20.00;99.90
20827;DHT22;10574;52.508;13.236;2023-09-30T13:14:28;20.00;99.90
20827;DHT22;10574;52.508;13.236;2023-09-30T13:20:37;20.00;99.90
20827;DHT22;10574;52.508;13.236;2023-09-30T13:23:06;20.20;99.90
20827;DHT22;10574;52.508;13.236;2023-09-30T13:25:33;20.00;99.90
20827;DHT22;10574;52.508;13.236;2023-09-30T13:28:02;19.70;99.90
20827;DHT22;10574;52.508;13.236;2023-09-30T13:30:29;19.60;99.90
20827;DHT22;10574;52.508;13.236;2023-09-30T13:32:58;19.60;99.90
20827;DHT22;10574;52.508;13.236;2023-09-30T13:35:26;19.60;99.90
20827;DHT22;10574;52.508;13.236;2023-09-30T13:37:54;19.60;99.90
20827;DHT22;10574;52.508;13.236;2023-09-30T13:40:22;19.60;99.90
20827;DHT22;10574;52.508;13.236;2023-09-30T13:42:50;19.60;99.90
20827;DHT22;10574;52.508;13.236;2023-09-30T13:45:17;19.70;99.90
20827;DHT22;10574;52.508;13.236;2023-09-30T13:47:45;19.80;99.90
20827;DHT22;10574;52.508;13.236;2023-09-30T13:50:14;19.80;99.90
20827;DHT22;10574;52.508;13.236;2023-09-30T13:52:42;19.80;99.90
20827;DHT22;10574;52.508;13.236;2023-09-30T13:55:10;19.80;99.90
20827;DHT22;10574;52.508;13.236;2023-09-30T13:57:38;19.90;99.90
20827;DHT22;10574;52.508;13.236;2023-09-30T14:00:07;20.00;99.90
20827;DHT22;10574;52.508;13.236;2023-09-30T14:02:37;20.00;99.90
20827;DHT22;10574;52.508;13.236;2023-09-30T14:05:05;19.90;99.90
20827;DHT22;10574;52.508;13.236;2023-09-30T14:07:36;19.80;99.90
20827;DHT22;10574;52.508;13.236;2023-09-30T14:10:07;19.80;99.90
20827;DHT22;10574;52.508;13.236;2023-09-30T14:12:37;19.70;99.90
20827;DHT22;10574;52.508;13.236;2023-09-30T14:15:07;19.70;99.90
20827;DHT22;10574;52.508;13.236;2023-09-30T14:17:35;19.70;99.90
20827;DHT22;10574;52.508;13.236;2023-09-30T14:20:04;19.80;99.90
20827;DHT22;10574;52.508;13.236;2023-09-30T14:22:32;19.80;99.90
20827;DHT22;10574;52.508;13.236;2023-09-30T14:25:00;19.80;99.90
20827;DHT22;10574;52.508;13.236;2023-09-30T14:27:28;19.70;99.90
20827;DHT22;10574;52.508;13.236;2023-09-30T14:29:56;19.70;99.90
20827;DHT22;10574;52.508;13.236;2023-09-30T14:32:24;19.60;99.90
20827;DHT22;10574;52.508;13.236;2023-09-30T14:34:52;19.60;99.90
20827;DHT22;10574;52.508;13.236;2023-09-30T14:37:20;19.70;99.90
20827;DHT22;10574;52.508;13.236;2023-09-30T14:39:48;19.80;99.90
20827;DHT22;10574;52.508;13.236;2023-09-30T14:42:15;19.80;99.90
20827;DHT22;10574;52.508;13.236;2023-09-30T14:44:43;19.70;99.90
20827;DHT22;10574;52.508;13.236;2023-09-30T14:47:11;19.80;99.90
20827;DHT22;10574;52.508;13.236;2023-09-30T14:49:39;19.80;99.90
20827;DHT22;10574;52.508;13.236;2023-09-30T14:52:08;19.70;99.90
20827;DHT22;10574;52.508;13.236;2023-09-30T14:54:36;19.60;99.90
20827;DHT22;10574;52.508;13.236;2023-09-30T14:57:04;19.50;99.90
20827;DHT22;10574;52.508;13.236;2023-09-30T14:59:35;19.50;99.90
20827;DHT22;10574;52.508;13.236;2023-09-30T15:02:03;19.60;99.90
20827;DHT22;10574;52.508;13.236;2023-09-30T15:04:31;19.50;99.90
20827;DHT22;10574;52.508;13.236;2023-09-30T15:06:59;19.40;99.90
20827;DHT22;10574;52.508;13.236;2023-09-30T15:09:27;19.30;99.90
20827;DHT22;10574;52.508;13.236;2023-09-30T15:11:55;19.30;99.90
20827;DHT22;10574;52.508;13.236;2023-09-30T15:14:23;19.20;99.90
20827;DHT22;10574;52.508;13.236;2023-09-30T15:16:51;19.20;99.90
20827;DHT22;10574;52.508;13.236;2023-09-30T15:19:18;19.30;99.90
20827;DHT22;10574;52.508;13.236;2023-09-30T15:21:46;19.10;99.90
20827;DHT22;10574;52.508;13.236;2023-09-30T15:24:14;19.10;99.90
20827;DHT22;10574;52.508;13.236;2023-09-30T15:26:42;19.10;99.90
20827;DHT22;10574;52.508;13.236;2023-09-30T15:29:09;19.10;99.90
20827;DHT22;10574;52.508;13.236;2023-09-30T15:31:37;18.90;99.90
20827;DHT22;10574;52.508;13.236;2023-09-30T15:34:06;18.90;99.90
20827;DHT22;10574;52.508;13.236;2023-09-30T15:36:34;18.90;99.90